Time;durP1;ratioP1;P1;durP2;ratioP2;P2;SDS_P1;SDS_P2;PMS_P1;PMS_P2;Temp;Humidity;BMP_temperature;BMP_pressure;BME280_temperature;BME280_humidity;BME280_pressure;Samples;Min_cycle;Max_cycle;Signal;HPM_P1;HPM_P2
2023/07/01 00:00:22;;;;;;;0.82;0.32;;;17.20;99.90;;;;;;5047740;28;20095;-73
2023/07/01 00:02:48;;;;;;;0.13;0.13;;;17.20;99.90;;;;;;5047364;28;20048;-72
2023/07/01 00:05:14;;;;;;;0.52;0.35;;;17.20;99.90;;;;;;5046093;28;20045;-73
2023/07/01 00:07:40;;;;;;;0.05;0.05;;;17.20;99.90;;;;;;5046848;28;20055;-72
2023/07/01 00:10:06;;;;;;;4.53;0.52;;;17.20;99.90;;;;;;5047669;28;20128;-73
2023/07/01 00:12:32;;;;;;;5.70;0.60;;;17.10;99.90;;;;;;5047548;28;20536;-72
2023/07/01 00:14:57;;;;;;;0.15;0.15;;;17.20;99.90;;;;;;5047497;28;20091;-73
2023/07/01 00:17:25;;;;;;;0.00;0.00;;;17.20;99.90;;;;;;5047077;28;20055;-72
2023/07/01 00:19:50;;;;;;;0.00;0.00;;;17.30;99.90;;;;;;5047461;28;20071;-72
2023/07/01 00:22:16;;;;;;;0.17;0.17;;;17.30;99.90;;;;;;5046570;28;20497;-72
2023/07/01 00:24:42;;;;;;;0.00;0.00;;;17.30;99.90;;;;;;5047446;28;20056;-72
2023/07/01 00:27:07;;;;;;;0.17;0.10;;;17.30;99.90;;;;;;5046756;28;20040;-72
2023/07/01 00:29:33;;;;;;;0.57;0.57;;;17.20;99.90;;;;;;5047217;28;20044;-72
2023/07/01 00:31:58;;;;;;;1.13;0.57;;;17.30;99.90;;;;;;5047095;28;20048;-72
2023/07/01 00:34:24;;;;;;;0.15;0.15;;;17.30;99.90;;;;;;5046825;28;20076;-73
2023/07/01 00:36:50;;;;;;;2.60;0.55;;;17.20;99.90;;;;;;5047241;28;20045;-73
2023/07/01 00:39:15;;;;;;;1.67;0.45;;;17.30;99.90;;;;;;5046899;28;20048;-73
2023/07/01 00:41:41;;;;;;;0.03;0.03;;;17.30;99.90;;;;;;5046969;28;20041;-73
2023/07/01 00:44:07;;;;;;;0.38;0.30;;;17.30;99.90;;;;;;5046161;28;20049;-73
2023/07/01 00:46:34;;;;;;;0.00;0.00;;;17.30;99.90;;;;;;5046230;28;20488;-73
2023/07/01 00:49:02;;;;;;;0.00;0.00;;;17.20;99.90;;;;;;5046419;28;20056;-73
2023/07/01 00:51:28;;;;;;;0.10;0.10;;;17.30;99.90;;;;;;5046712;28;20040;-73
2023/07/01 00:53:55;;;;;;;0.00;0.00;;;17.30;99.90;;;;;;5046609;28;20608;-73
2023/07/01 00:56:21;;;;;;;0.70;0.50;;;17.40;99.90;;;;;;5046037;28;20051;-73
2023/07/01 00:58:46;;;;;;;0.10;0.10;;;17.40;99.90;;;;;;5046066;28;20033;-73
2023/07/01 01:01:17;;;;;;;0.10;0.10;;;17.40;99.90;;;;;;5046184;28;20128;-73
2023/07/01 01:03:48;;;;;;;0.08;0.08;;;17.50;99.90;;;;;;5045873;28;20052;-73
2023/07/01 01:06:24;;;;;;;0.80;0.40;;;17.40;99.90;;;;;;5046795;28;20045;-73
2023/07/01 01:09:11;;;;;;;0.85;0.55;;;17.50;99.90;;;;;;5046900;28;20834;-73
2023/07/01 01:11:43;;;;;;;1.45;0.60;;;17.40;99.90;;;;;;5046417;28;20056;-73
2023/07/01 01:14:11;;;;;;;0.00;0.00;;;17.40;99.90;;;;;;5045454;28;20052;-73
2023/07/01 01:16:39;;;;;;;0.30;0.30;;;17.40;99.90;;;;;;5045808;28;20053;-73
2023/07/01 01:19:19;;;;;;;0.00;0.00;;;17.50;99.90;;;;;;5046475;28;20048;-73
2023/07/01 01:21:51;;;;;;;0.22;0.22;;;17.40;99.90;;;;;;5046224;28;20124;-73
2023/07/01 01:24:20;;;;;;;0.10;0.10;;;17.40;99.90;;;;;;5046121;28;20056;-73
2023/07/01 01:26:49;;;;;;;0.10;0.10;;;17.40;99.90;;;;;;5046197;28;20060;-73
2023/07/01 01:29:15;;;;;;;0.13;0.13;;;17.40;99.90;;;;;;5046289;28;20056;-73
2023/07/01 01:31:41;;;;;;;0.22;0.20;;;17.40;99.90;;;;;;5044802;28;20063;-73
2023/07/01 01:34:06;;;;;;;0.15;0.15;;;17.40;99.90;;;;;;5045328;28;20483;-73
2023/07/01 01:36:50;;;;;;;0.00;0.00;;;17.40;99.90;;;;;;5045007;28;20071;-73
2023/07/01 01:39:21;;;;;;;1.85;0.90;;;17.30;99.90;;;;;;5045376;28;20064;-73
2023/07/01 01:41:51;;;;;;;0.68;0.35;;;17.30;99.90;;;;;;5044874;28;20123;-73
2023/07/01 01:44:35;;;;;;;0.10;0.10;;;17.20;99.90;;;;;;5045023;28;20067;-73
2023/07/01 01:47:02;;;;;;;0.00;0.00;;;17.10;99.90;;;;;;5044999;28;20049;-73
2023/07/01 01:49:29;;;;;;;0.30;0.30;;;17.10;99.90;;;;;;5044963;28;20041;-73
2023/07/01 01:51:56;;;;;;;0.47;0.47;;;17.40;99.90;;;;;;5044457;28;20040;-73
2023/07/01 01:54:24;;;;;;;0.00;0.00;;;17.10;99.90;;;;;;5044606;28;20495;-72
2023/07/01 01:56:51;;;;;;;0.22;0.20;;;17.00;99.90;;;;;;5044961;28;20045;-73
2023/07/01 01:59:17;;;;;;;0.43;0.38;;;16.80;1.00;;;;;;5044889;28;20489;-73
2023/07/01 02:01:43;;;;;;;0.63;0.10;;;16.50;37.40;;;;;;5042436;28;20041;-73
2023/07/01 02:04:08;;;;;;;0.90;0.52;;;16.20;99.90;;;;;;5042310;28;20373;-73
2023/07/01 02:06:34;;;;;;;0.30;0.30;;;16.00;99.90;;;;;;5042479;28;20152;-73
2023/07/01 02:09:00;;;;;;;0.30;0.30;;;15.70;1.00;;;;;;5041549;28;20513;-73
2023/07/01 02:11:25;;;;;;;0.38;0.30;;;15.50;5.30;;;;;;5041581;28;20097;-73
2023/07/01 02:13:51;;;;;;;0.70;0.63;;;15.40;1.00;;;;;;5041878;28;20051;-73
2023/07/01 02:16:17;;;;;;;0.10;0.10;;;15.30;99.90;;;;;;5042166;28;20738;-73
2023/07/01 02:18:42;;;;;;;0.35;0.28;;;15.30;96.40;;;;;;5041337;28;20073;-72
2023/07/01 02:21:08;;;;;;;0.32;0.30;;;15.40;7.00;;;;;;5041214;28;20051;-72
2023/07/01 02:23:34;;;;;;;0.10;0.10;;;15.50;1.00;;;;;;5042007;28;20041;-73
2023/07/01 02:25:59;;;;;;;0.13;0.10;;;15.70;99.90;;;;;;5041429;28;20157;-73
2023/07/01 02:28:25;;;;;;;0.10;0.10;;;15.80;99.90;;;;;;5041860;28;20041;-73
2023/07/01 02:30:51;;;;;;;0.85;0.32;;;15.80;1.00;;;;;;5041877;28;20123;-73
2023/07/01 02:33:16;;;;;;;1.10;0.75;;;15.90;1.00;;;;;;5041622;28;20044;-73
2023/07/01 02:35:42;;;;;;;0.10;0.10;;;16.00;99.90;;;;;;5041632;28;20458;-73
2023/07/01 02:38:08;;;;;;;0.00;0.00;;;16.30;99.90;;;;;;5042111;28;20574;-72
2023/07/01 02:40:34;;;;;;;0.10;0.10;;;16.20;1.00;;;;;;5040984;28;20040;-73
2023/07/01 02:42:59;;;;;;;0.40;0.40;;;16.50;99.90;;;;;;5041454;28;20147;-73
2023/07/01 02:45:25;;;;;;;0.08;0.08;;;16.20;99.90;;;;;;5041991;28;20044;-73
2023/07/01 02:47:51;;;;;;;0.47;0.47;;;16.50;86.60;;;;;;5041457;28;20067;-73
2023/07/01 02:50:17;;;;;;;0.47;0.47;;;16.40;1.00;;;;;;5040927;28;20503;-73
2023/07/01 02:52:42;;;;;;;0.00;0.00;;;16.50;1.00;;;;;;5040700;28;20037;-73
2023/07/01 02:55:08;;;;;;;1.23;0.85;;;16.50;1.00;;;;;;5041276;28;20454;-73
2023/07/01 02:57:34;;;;;;;0.20;0.20;;;16.50;1.00;;;;;;5041645;28;20077;-73
2023/07/01 02:59:59;;;;;;;0.57;0.40;;;16.60;1.00;;;;;;5041105;28;20041;-73
2023/07/01 03:02:25;;;;;;;0.50;0.50;;;16.60;1.00;;;;;;5041368;28;20053;-73
2023/07/01 03:04:51;;;;;;;0.60;0.52;;;16.50;1.00;;;;;;5041401;28;20045;-73
2023/07/01 03:07:16;;;;;;;0.20;0.17;;;16.50;24.10;;;;;;5043725;28;20048;-73
2023/07/01 03:09:42;;;;;;;0.38;0.38;;;16.50;80.80;;;;;;5045700;28;20183;-72
2023/07/01 03:12:08;;;;;;;0.10;0.10;;;16.50;99.90;;;;;;5045133;28;20110;-72
2023/07/01 03:14:33;;;;;;;0.00;0.00;;;16.40;1.00;;;;;;5045355;28;20468;-73
2023/07/01 03:16:59;;;;;;;0.65;0.20;;;16.50;99.90;;;;;;5044658;28;20095;-73
2023/07/01 03:19:25;;;;;;;0.22;0.15;;;16.60;99.90;;;;;;5045275;28;20045;-73
2023/07/01 03:21:50;;;;;;;0.65;0.65;;;16.60;99.90;;;;;;5045734;28;20045;-73
2023/07/01 03:24:16;;;;;;;0.00;0.00;;;16.70;99.90;;;;;;5045694;28;20091;-73
2023/07/01 03:26:43;;;;;;;1.63;1.13;;;16.70;99.90;;;;;;5045687;28;20045;-73
2023/07/01 03:29:08;;;;;;;0.22;0.22;;;16.60;99.90;;;;;;5044279;28;20107;-73
2023/07/01 03:31:34;;;;;;;0.45;0.40;;;16.60;99.90;;;;;;5045462;28;20450;-73
2023/07/01 03:34:00;;;;;;;0.30;0.20;;;16.50;99.90;;;;;;5044807;28;20052;-73
2023/07/01 03:36:25;;;;;;;4.70;1.00;;;16.60;99.90;;;;;;5045588;28;20117;-73
2023/07/01 03:38:52;;;;;;;0.88;0.88;;;16.50;1.00;;;;;;5043644;28;20147;-73
2023/07/01 03:41:18;;;;;;;0.00;0.00;;;16.20;99.90;;;;;;5044786;28;20052;-73
2023/07/01 03:43:44;;;;;;;0.70;0.38;;;15.90;99.90;;;;;;5044621;28;20052;-73
2023/07/01 03:46:09;;;;;;;0.13;0.05;;;15.80;99.90;;;;;;5045166;28;20415;-73
2023/07/01 03:48:35;;;;;;;0.40;0.40;;;15.60;99.90;;;;;;5044217;28;20068;-73
2023/07/01 03:51:01;;;;;;;0.15;0.15;;;15.30;99.90;;;;;;5044116;28;20567;-73
2023/07/01 03:53:26;;;;;;;0.95;0.20;;;15.40;39.80;;;;;;5045072;28;20120;-72
2023/07/01 03:55:52;;;;;;;0.17;0.17;;;15.20;99.90;;;;;;5045050;28;20060;-73
2023/07/01 03:58:21;;;;;;;2.80;0.52;;;15.20;99.90;;;;;;5045303;28;20106;-73
2023/07/01 04:00:51;;;;;;;0.43;0.40;;;15.20;99.90;;;;;;5044519;28;20075;-73
2023/07/01 04:03:17;;;;;;;1.02;0.32;;;15.30;1.00;;;;;;5045281;28;20116;-73
2023/07/01 04:05:42;;;;;;;12.50;0.52;;;15.30;1.00;;;;;;5045066;28;20055;-73
2023/07/01 04:08:08;;;;;;;1.35;0.63;;;15.40;99.90;;;;;;5044711;28;20630;-73
2023/07/01 04:10:33;;;;;;;1.70;0.40;;;15.50;99.90;;;;;;5044187;28;20044;-73
2023/07/01 04:13:00;;;;;;;0.20;0.17;;;15.50;99.90;;;;;;5044594;28;20057;-73
2023/07/01 04:15:27;;;;;;;0.20;0.20;;;15.60;99.90;;;;;;5044524;28;20056;-73
2023/07/01 04:17:54;;;;;;;0.00;0.00;;;15.70;2.80;;;;;;5044887;28;20049;-73
2023/07/01 04:20:20;;;;;;;0.10;0.10;;;15.70;1.00;;;;;;5044768;28;20049;-73
2023/07/01 04:22:47;;;;;;;0.85;0.57;;;15.70;1.00;;;;;;5044597;28;20481;-73
2023/07/01 04:25:13;;;;;;;0.00;0.00;;;15.80;1.00;;;;;;5044964;28;20403;-72
2023/07/01 04:27:39;;;;;;;0.85;0.65;;;15.80;1.00;;;;;;5044620;28;20044;-73
2023/07/01 04:30:08;;;;;;;0.28;0.20;;;15.80;1.00;;;;;;5044451;28;20199;-73
2023/07/01 04:32:34;;;;;;;0.22;0.20;;;15.90;1.00;;;;;;5043989;28;20582;-73
2023/07/01 04:35:01;;;;;;;0.88;0.45;;;16.00;1.00;;;;;;5044091;28;20041;-73
2023/07/01 04:37:26;;;;;;;1.65;0.30;;;15.90;20.10;;;;;;5044579;28;20079;-73
2023/07/01 04:39:52;;;;;;;2.75;0.63;;;15.90;99.90;;;;;;5044236;28;20071;-73
2023/07/01 04:42:18;;;;;;;0.10;0.10;;;15.90;99.90;;;;;;5043921;28;20478;-73
2023/07/01 04:44:44;;;;;;;0.43;0.10;;;16.00;99.90;;;;;;5044363;28;20468;-73
2023/07/01 04:47:09;;;;;;;0.00;0.00;;;16.00;99.90;;;;;;5044167;28;20071;-73
2023/07/01 04:49:35;;;;;;;0.05;0.05;;;16.10;99.90;;;;;;5044156;28;20061;-73
2023/07/01 04:52:01;;;;;;;0.22;0.22;;;16.10;99.90;;;;;;5043530;28;20487;-73
2023/07/01 04:54:26;;;;;;;0.45;0.40;;;16.20;99.90;;;;;;5043749;28;20047;-73
2023/07/01 04:56:52;;;;;;;1.45;0.63;;;16.30;99.90;;;;;;5042771;28;20052;-73
2023/07/01 04:59:17;;;;;;;0.40;0.30;;;16.30;99.90;;;;;;5043258;28;20487;-73
2023/07/01 05:01:43;;;;;;;0.93;0.20;;;16.30;99.90;;;;;;5043110;28;20049;-73
2023/07/01 05:04:09;;;;;;;1.80;1.23;;;16.30;99.90;;;;;;5043057;28;20128;-72
2023/07/01 05:06:35;;;;;;;1.00;0.35;;;16.40;99.90;;;;;;5044100;28;20048;-73
2023/07/01 05:09:01;;;;;;;0.22;0.22;;;16.40;99.90;;;;;;5043630;28;20052;-72
2023/07/01 05:11:27;;;;;;;0.63;0.52;;;16.40;99.90;;;;;;5043464;28;20056;-72
2023/07/01 05:13:53;;;;;;;0.35;0.30;;;16.40;12.60;;;;;;5043637;28;20072;-72
2023/07/01 05:16:19;;;;;;;0.10;0.10;;;16.40;59.00;;;;;;5043890;28;20041;-72
2023/07/01 05:18:44;;;;;;;1.00;0.75;;;16.40;1.00;;;;;;5043816;28;20499;-72
2023/07/01 05:21:10;;;;;;;0.65;0.40;;;16.50;1.00;;;;;;5043570;28;20044;-73
2023/07/01 05:23:35;;;;;;;0.13;0.13;;;16.50;1.00;;;;;;5043572;28;20411;-72
2023/07/01 05:26:01;;;;;;;0.15;0.15;;;16.50;1.00;;;;;;5043431;28;20128;-72
2023/07/01 05:28:27;;;;;;;0.25;0.20;;;16.50;1.00;;;;;;5042479;28;20506;-73
2023/07/01 05:30:52;;;;;;;1.38;0.65;;;16.60;99.90;;;;;;5042416;28;20040;-72
2023/07/01 05:33:18;;;;;;;2.03;0.60;;;16.60;99.90;;;;;;5042994;28;20048;-72
2023/07/01 05:35:44;;;;;;;1.17;0.38;;;16.60;1.00;;;;;;5043377;28;20072;-77
2023/07/01 05:38:11;;;;;;;0.47;0.47;;;16.60;1.00;;;;;;5043434;28;20561;-73
2023/07/01 05:40:37;;;;;;;0.70;0.65;;;16.70;99.90;;;;;;5043384;28;20052;-72
2023/07/01 05:43:03;;;;;;;0.00;0.00;;;16.80;99.90;;;;;;5042724;28;20052;-72
2023/07/01 05:45:28;;;;;;;0.10;0.10;;;16.80;99.90;;;;;;5042600;28;20044;-72
2023/07/01 05:47:54;;;;;;;0.08;0.08;;;16.90;99.90;;;;;;5042990;28;20098;-72
2023/07/01 05:50:20;;;;;;;0.10;0.10;;;16.80;99.90;;;;;;5042956;28;20051;-73
2023/07/01 05:52:45;;;;;;;0.52;0.52;;;16.80;99.90;;;;;;5042776;28;20384;-73
2023/07/01 05:55:11;;;;;;;0.90;0.50;;;16.90;93.90;;;;;;5043254;28;20131;-73
2023/07/01 05:57:37;;;;;;;0.45;0.40;;;16.90;39.80;;;;;;5042787;28;20048;-73
2023/07/01 06:00:04;;;;;;;1.25;0.70;;;16.90;78.00;;;;;;5042781;28;20048;-73
2023/07/01 06:02:30;;;;;;;0.00;0.00;;;16.90;99.90;;;;;;5042504;28;20176;-72
2023/07/01 06:04:56;;;;;;;0.60;0.10;;;17.00;77.80;;;;;;5042723;28;20072;-71
2023/07/01 06:07:22;;;;;;;0.65;0.65;;;17.00;1.00;;;;;;5042420;28;20079;-72
2023/07/01 06:09:49;;;;;;;0.00;0.00;;;17.00;69.60;;;;;;5042633;28;20105;-72
2023/07/01 06:12:15;;;;;;;0.73;0.73;;;17.00;99.90;;;;;;5041930;28;20132;-72
2023/07/01 06:14:41;;;;;;;0.03;0.03;;;17.00;99.90;;;;;;5042292;28;20053;-72
2023/07/01 06:17:08;;;;;;;0.10;0.10;;;17.00;99.90;;;;;;5041404;28;20136;-72
2023/07/01 06:19:33;;;;;;;0.38;0.38;;;17.00;99.90;;;;;;5041732;28;20147;-72
2023/07/01 06:21:59;;;;;;;0.00;0.00;;;17.00;1.00;;;;;;5041480;28;20099;-72
2023/07/01 06:24:24;;;;;;;1.77;1.42;;;17.30;1.00;;;;;;5040166;28;20403;-72
2023/07/01 06:26:50;;;;;;;0.20;0.10;;;17.30;66.40;;;;;;5040145;28;20069;-72
2023/07/01 06:29:16;;;;;;;0.20;0.10;;;17.00;99.90;;;;;;5040044;28;20079;-73
2023/07/01 06:31:42;;;;;;;0.00;0.00;;;17.00;99.90;;;;;;5040031;28;20559;-73
2023/07/01 06:34:17;;;;;;;0.15;0.15;;;17.00;99.90;;;;;;5040129;28;20041;-72
2023/07/01 06:36:45;;;;;;;0.10;0.10;;;17.00;99.90;;;;;;5038589;28;20586;-73
2023/07/01 06:39:12;;;;;;;0.20;0.17;;;17.00;99.90;;;;;;5039235;28;20120;-73
2023/07/01 06:41:38;;;;;;;0.05;0.05;;;16.90;99.90;;;;;;5038924;28;20059;-73
2023/07/01 06:44:04;;;;;;;0.52;0.25;;;16.60;1.00;;;;;;5038603;28;20040;-73
2023/07/01 06:46:32;;;;;;;1.33;1.00;;;16.50;99.90;;;;;;5039860;28;20045;-73
2023/07/01 06:48:58;;;;;;;0.05;0.05;;;16.40;99.90;;;;;;5039642;28;20408;-73
2023/07/01 06:51:23;;;;;;;0.55;0.30;;;16.30;48.80;;;;;;5039308;28;20056;-74
2023/07/01 06:53:59;;;;;;;0.98;0.60;;;16.20;87.20;;;;;;5039062;28;20771;-73
2023/07/01 06:56:27;;;;;;;0.70;0.45;;;16.10;99.90;;;;;;5039331;28;20049;-73
2023/07/01 06:58:53;;;;;;;0.65;0.65;;;16.10;99.90;;;;;;5039356;28;20157;-73
2023/07/01 07:01:18;;;;;;;0.77;0.17;;;16.20;99.90;;;;;;5038660;28;20049;-73
2023/07/01 07:03:44;;;;;;;4.47;0.75;;;16.30;99.90;;;;;;5038944;28;20056;-73
2023/07/01 07:06:10;;;;;;;0.20;0.20;;;16.40;99.90;;;;;;5038949;28;20531;-73
2023/07/01 07:08:36;;;;;;;0.35;0.32;;;16.40;99.90;;;;;;5038442;28;20086;-72
2023/07/01 07:11:02;;;;;;;0.95;0.47;;;16.40;99.90;;;;;;5038814;28;20065;-73
2023/07/01 07:13:28;;;;;;;3.47;0.70;;;16.30;99.90;;;;;;5039290;28;20057;-72
2023/07/01 07:15:53;;;;;;;0.68;0.47;;;16.30;99.90;;;;;;5039117;28;20495;-73
2023/07/01 07:18:19;;;;;;;0.00;0.00;;;16.50;99.90;;;;;;5038980;28;20483;-72
2023/07/01 07:20:45;;;;;;;0.25;0.22;;;16.40;99.90;;;;;;5039370;28;20037;-73
2023/07/01 07:23:10;;;;;;;0.30;0.30;;;16.50;99.90;;;;;;5039646;28;20048;-73
2023/07/01 07:25:36;;;;;;;0.00;0.00;;;16.70;99.90;;;;;;5039615;28;20055;-73
2023/07/01 07:28:05;;;;;;;0.17;0.15;;;17.00;99.90;;;;;;5039407;28;20084;-73
2023/07/01 07:30:31;;;;;;;0.17;0.17;;;17.10;99.90;;;;;;5039313;28;20045;-73
2023/07/01 07:32:57;;;;;;;0.20;0.20;;;17.20;99.90;;;;;;5039261;28;20098;-73
2023/07/01 07:35:22;;;;;;;0.38;0.25;;;17.10;99.90;;;;;;5039146;28;20560;-73
2023/07/01 07:37:49;;;;;;;0.00;0.00;;;17.20;99.90;;;;;;5040205;28;20076;-73
2023/07/01 07:40:15;;;;;;;0.00;0.00;;;17.10;99.90;;;;;;5041090;28;20057;-73
2023/07/01 07:42:46;;;;;;;0.08;0.08;;;17.20;99.90;;;;;;5039796;28;20545;-73
2023/07/01 07:45:12;;;;;;;0.10;0.10;;;17.30;99.90;;;;;;5039801;28;20037;-72
2023/07/01 07:47:38;;;;;;;0.10;0.10;;;17.40;99.90;;;;;;5039958;28;20104;-72
2023/07/01 07:50:04;;;;;;;0.47;0.28;;;17.50;99.90;;;;;;5041576;28;20514;-73
2023/07/01 07:52:30;;;;;;;1.75;0.93;;;17.50;99.90;;;;;;5042494;28;20075;-73
2023/07/01 07:54:55;;;;;;;0.43;0.30;;;17.50;86.20;;;;;;5046136;28;21105;-72
2023/07/01 07:57:21;;;;;;;0.30;0.10;;;17.50;87.00;;;;;;5044480;28;20049;-73
2023/07/01 07:59:47;;;;;;;0.57;0.52;;;17.50;98.40;;;;;;5045980;28;20507;-73
2023/07/01 08:02:12;;;;;;;0.05;0.05;;;17.50;96.40;;;;;;5045450;28;20087;-73
2023/07/01 08:04:38;;;;;;;0.80;0.40;;;17.60;99.90;;;;;;5043831;28;20098;-73
2023/07/01 08:07:04;;;;;;;0.00;0.00;;;17.60;99.90;;;;;;5043324;28;20102;-73
2023/07/01 08:09:31;;;;;;;0.22;0.22;;;17.70;95.60;;;;;;5044853;28;20082;-73
2023/07/01 08:11:59;;;;;;;0.75;0.63;;;17.80;1.00;;;;;;5044170;28;20057;-73
2023/07/01 08:14:26;;;;;;;0.77;0.55;;;17.70;1.00;;;;;;5044005;28;20673;-73
2023/07/01 08:16:55;;;;;;;0.28;0.10;;;17.70;1.00;;;;;;5042808;28;20407;-73
2023/07/01 08:19:21;;;;;;;0.00;0.00;;;17.70;1.00;;;;;;5042742;28;20415;-73
2023/07/01 08:21:46;;;;;;;0.22;0.22;;;17.80;1.00;;;;;;5043261;28;20051;-73
2023/07/01 08:24:12;;;;;;;0.10;0.10;;;17.90;1.00;;;;;;5042921;28;20055;-73
2023/07/01 08:26:38;;;;;;;0.00;0.00;;;18.10;1.00;;;;;;5042746;28;20053;-73
2023/07/01 08:29:07;;;;;;;0.10;0.10;;;18.30;1.00;;;;;;5042677;28;20041;-72
2023/07/01 08:31:33;;;;;;;0.10;0.10;;;18.50;99.90;;;;;;5044380;28;20131;-73
2023/07/01 08:33:58;;;;;;;0.13;0.13;;;18.60;99.90;;;;;;5043408;28;20132;-73
2023/07/01 08:36:25;;;;;;;1.48;0.25;;;18.80;7.40;;;;;;5044097;28;20522;-73
2023/07/01 08:38:51;;;;;;;0.20;0.15;;;18.80;60.60;;;;;;5044167;28;20163;-74
2023/07/01 08:41:18;;;;;;;0.00;0.00;;;18.90;99.90;;;;;;5044742;28;20081;-72
2023/07/01 08:43:47;;;;;;;0.00;0.00;;;18.80;99.90;;;;;;5043893;28;20045;-72
2023/07/01 08:46:15;;;;;;;0.15;0.08;;;18.80;99.90;;;;;;5043888;28;20103;-73
2023/07/01 08:48:43;;;;;;;0.28;0.28;;;18.80;1.00;;;;;;5043806;28;20068;-73
2023/07/01 08:51:20;;;;;;;0.55;0.20;;;18.80;99.90;;;;;;5044529;28;20589;-73
2023/07/01 08:53:47;;;;;;;0.05;0.05;;;18.80;1.00;;;;;;5044106;28;20052;-73
2023/07/01 08:56:13;;;;;;;0.17;0.15;;;18.60;99.90;;;;;;5043928;28;20098;-73
2023/07/01 08:58:40;;;;;;;0.85;0.25;;;18.40;99.90;;;;;;5045422;28;20054;-73
2023/07/01 09:01:06;;;;;;;0.93;0.38;;;18.20;1.00;;;;;;5044000;28;20060;-73
2023/07/01 09:03:36;;;;;;;0.82;0.40;;;18.00;1.00;;;;;;5043454;28;20513;-73
2023/07/01 09:06:05;;;;;;;0.43;0.25;;;17.90;99.90;;;;;;5043724;28;20056;-73
2023/07/01 09:08:40;;;;;;;0.20;0.20;;;17.80;99.90;;;;;;5043245;28;20053;-72
2023/07/01 09:11:09;;;;;;;0.20;0.20;;;17.80;99.90;;;;;;5043854;28;20065;-73
2023/07/01 09:13:35;;;;;;;0.15;0.13;;;17.90;99.90;;;;;;5043656;28;20049;-73
2023/07/01 09:16:01;;;;;;;0.50;0.40;;;18.00;99.90;;;;;;5043599;28;20049;-73
2023/07/01 09:18:30;;;;;;;0.30;0.28;;;18.00;99.90;;;;;;5042924;28;20045;-73
2023/07/01 09:20:57;;;;;;;0.85;0.43;;;18.00;99.90;;;;;;5043526;28;20094;-73
2023/07/01 09:23:30;;;;;;;0.15;0.15;;;17.90;99.90;;;;;;5043155;28;20076;-73
2023/07/01 09:26:11;;;;;;;0.30;0.28;;;17.90;99.90;;;;;;5043303;28;20045;-73
2023/07/01 09:28:38;;;;;;;0.32;0.32;;;18.00;99.90;;;;;;5043037;28;20099;-73
2023/07/01 09:31:07;;;;;;;0.10;0.10;;;18.20;99.90;;;;;;5043403;28;20076;-72
2023/07/01 09:33:36;;;;;;;0.10;0.10;;;18.30;99.90;;;;;;5043362;28;20075;-73
2023/07/01 09:36:02;;;;;;;0.30;0.30;;;18.30;99.90;;;;;;5043556;28;20056;-72
2023/07/01 09:38:32;;;;;;;0.17;0.15;;;18.30;99.90;;;;;;5042761;28;20503;-73
2023/07/01 09:41:16;;;;;;;0.30;0.30;;;18.30;99.90;;;;;;5043477;28;20106;-73
2023/07/01 09:43:42;;;;;;;0.00;0.00;;;18.00;99.90;;;;;;5043047;28;20442;-73
2023/07/01 09:46:08;;;;;;;1.65;0.30;;;17.90;99.90;;;;;;5043560;28;20056;-73
2023/07/01 09:48:34;;;;;;;0.35;0.32;;;17.90;99.90;;;;;;5043240;28;20045;-73
2023/07/01 09:51:04;;;;;;;0.95;0.47;;;18.10;99.90;;;;;;5043274;28;20054;-73
2023/07/01 09:53:32;;;;;;;0.63;0.32;;;18.30;99.90;;;;;;5043133;28;20446;-73
2023/07/01 09:56:06;;;;;;;0.00;0.00;;;18.30;99.90;;;;;;5043129;28;20037;-73
2023/07/01 09:58:32;;;;;;;2.28;0.40;;;18.40;99.90;;;;;;5042760;28;20839;-73
2023/07/01 10:01:02;;;;;;;0.35;0.35;;;18.10;99.90;;;;;;5042921;28;20045;-73
2023/07/01 10:03:28;;;;;;;0.08;0.08;;;18.10;99.90;;;;;;5042812;28;20072;-73
2023/07/01 10:05:54;;;;;;;0.10;0.10;;;18.10;99.90;;;;;;5043017;28;20051;-73
2023/07/01 10:08:20;;;;;;;1.63;0.68;;;18.20;99.90;;;;;;5042612;28;20041;-73
2023/07/01 10:11:08;;;;;;;1.17;0.50;;;18.20;99.90;;;;;;5042300;28;20053;-73
2023/07/01 10:13:41;;;;;;;0.03;0.03;;;18.40;99.90;;;;;;5042396;28;20049;-72
2023/07/01 10:16:08;;;;;;;0.30;0.30;;;18.50;99.90;;;;;;5042209;28;20045;-73
2023/07/01 10:18:34;;;;;;;0.08;0.08;;;18.60;99.90;;;;;;5042338;28;20385;-73
2023/07/01 10:21:29;;;;;;;0.50;0.50;;;18.60;99.90;;;;;;5042558;28;20115;-73
2023/07/01 10:24:01;;;;;;;0.00;0.00;;;18.60;99.90;;;;;;5042434;28;20545;-72
2023/07/01 10:26:42;;;;;;;0.10;0.10;;;18.70;99.90;;;;;;5042158;28;20083;-73
2023/07/01 10:29:27;;;;;;;0.43;0.32;;;18.70;99.90;;;;;;5042634;28;20049;-73
2023/07/01 10:32:11;;;;;;;0.03;0.03;;;18.60;99.90;;;;;;5041456;28;20049;-74
2023/07/01 10:34:55;;;;;;;0.10;0.10;;;18.60;99.90;;;;;;5042146;28;20095;-74
2023/07/01 10:37:22;;;;;;;0.47;0.30;;;18.50;99.90;;;;;;5042389;28;20389;-74
2023/07/01 10:39:49;;;;;;;0.10;0.10;;;18.50;99.90;;;;;;5042335;28;20512;-74
2023/07/01 10:42:31;;;;;;;0.20;0.20;;;18.50;99.90;;;;;;5042274;28;20052;-74
2023/07/01 10:45:11;;;;;;;0.08;0.00;;;18.50;99.90;;;;;;5041728;28;20084;-75
2023/07/01 10:47:44;;;;;;;1.35;0.63;;;18.60;99.90;;;;;;5041852;28;20118;-74
2023/07/01 10:50:11;;;;;;;0.63;0.38;;;18.50;99.90;;;;;;5040602;28;20049;-74
2023/07/01 10:52:55;;;;;;;1.08;0.47;;;18.70;99.90;;;;;;5041644;28;20442;-74
2023/07/01 10:55:44;;;;;;;0.50;0.45;;;18.70;99.90;;;;;;5041945;28;20104;-75
2023/07/01 10:58:13;;;;;;;1.23;1.08;;;18.90;99.90;;;;;;5041823;28;20124;-74
2023/07/01 11:00:39;;;;;;;0.20;0.10;;;18.90;99.90;;;;;;5042084;28;20491;-74
2023/07/01 11:03:29;;;;;;;0.08;0.08;;;18.90;99.90;;;;;;5041456;28;20041;-74
2023/07/01 11:05:58;;;;;;;0.05;0.05;;;18.90;99.90;;;;;;5041735;28;20062;-74
2023/07/01 11:08:23;;;;;;;0.80;0.17;;;19.00;99.90;;;;;;5041442;28;20466;-74
2023/07/01 11:10:49;;;;;;;0.20;0.10;;;18.90;99.90;;;;;;5041753;28;20128;-74
2023/07/01 11:13:18;;;;;;;0.10;0.10;;;18.80;99.90;;;;;;5041709;28;20500;-74
2023/07/01 11:16:02;;;;;;;0.00;0.00;;;18.80;99.90;;;;;;5041638;28;20044;-74
2023/07/01 11:18:51;;;;;;;0.00;0.00;;;18.80;99.90;;;;;;5041456;28;20557;-74
2023/07/01 11:21:22;;;;;;;0.10;0.10;;;18.90;99.90;;;;;;5041796;28;20101;-74
2023/07/01 11:24:08;;;;;;;0.28;0.28;;;18.90;99.90;;;;;;5041452;28;20045;-74
2023/07/01 11:26:38;;;;;;;0.00;0.00;;;18.90;99.90;;;;;;5041797;28;20084;-74
2023/07/01 11:29:15;;;;;;;0.03;0.03;;;18.90;99.90;;;;;;5045283;28;20527;-75
2023/07/01 11:31:41;;;;;;;0.85;0.32;;;18.90;99.90;;;;;;5045712;28;20040;-74
2023/07/01 11:34:07;;;;;;;0.00;0.00;;;19.00;99.90;;;;;;5045524;28;20364;-74
2023/07/01 11:36:43;;;;;;;0.52;0.20;;;19.00;99.90;;;;;;5045940;28;20045;-74
2023/07/01 11:39:16;;;;;;;0.08;0.08;;;19.00;99.90;;;;;;5045584;28;20133;-74
2023/07/01 11:41:53;;;;;;;0.25;0.20;;;19.20;99.90;;;;;;5045669;28;20521;-74
2023/07/01 11:44:24;;;;;;;0.00;0.00;;;19.30;99.90;;;;;;5046057;28;20060;-74
2023/07/01 11:46:52;;;;;;;0.22;0.15;;;19.70;99.90;;;;;;5045601;28;20052;-74
2023/07/01 11:49:20;;;;;;;0.00;0.00;;;20.30;99.90;;;;;;5045155;28;20045;-73
2023/07/01 11:51:47;;;;;;;0.00;0.00;;;20.50;99.90;;;;;;5044954;28;20049;-73
2023/07/01 11:54:15;;;;;;;0.00;0.00;;;20.40;99.90;;;;;;5045313;28;20648;-73
2023/07/01 11:56:41;;;;;;;0.00;0.00;;;20.30;99.90;;;;;;5045213;28;20049;-73
2023/07/01 11:59:07;;;;;;;0.00;0.00;;;20.10;99.90;;;;;;5044917;28;20061;-73
2023/07/01 12:01:36;;;;;;;0.08;0.05;;;20.00;99.90;;;;;;5045645;28;20124;-73
2023/07/01 12:04:16;;;;;;;0.35;0.22;;;20.40;99.90;;;;;;5044948;28;20415;-73
2023/07/01 12:06:42;;;;;;;0.00;0.00;;;21.10;99.90;;;;;;5045523;28;20057;-72
2023/07/01 12:09:08;;;;;;;0.85;0.32;;;22.00;99.90;;;;;;5045048;28;20037;-73
2023/07/01 12:11:45;;;;;;;0.43;0.10;;;22.80;1.00;;;;;;5045147;28;20056;-73
2023/07/01 12:14:18;;;;;;;0.00;0.00;;;23.90;99.90;;;;;;5045000;28;20136;-73
2023/07/01 12:16:47;;;;;;;0.00;0.00;;;24.10;99.90;;;;;;5044668;28;20076;-73
2023/07/01 12:19:13;;;;;;;0.22;0.17;;;23.90;98.00;;;;;;5044838;28;20582;-72
2023/07/01 12:21:40;;;;;;;0.00;0.00;;;23.60;99.90;;;;;;5044994;28;20123;-73
2023/07/01 12:24:25;;;;;;;0.50;0.50;;;23.70;99.90;;;;;;5045410;28;20522;-73
2023/07/01 12:26:53;;;;;;;0.00;0.00;;;23.90;1.00;;;;;;5044415;28;20041;-73
2023/07/01 12:29:19;;;;;;;0.85;0.65;;;23.70;1.00;;;;;;5044288;28;20584;-73
2023/07/01 12:31:45;;;;;;;0.52;0.30;;;23.20;99.90;;;;;;5044415;28;20538;-73
2023/07/01 12:34:11;;;;;;;0.00;0.00;;;22.70;1.00;;;;;;5044619;28;20450;-73
2023/07/01 12:36:37;;;;;;;0.55;0.52;;;22.30;1.00;;;;;;5044191;28;20118;-73
2023/07/01 12:39:03;;;;;;;0.05;0.05;;;22.10;30.30;;;;;;5044145;28;20037;-73
2023/07/01 12:41:35;;;;;;;0.00;0.00;;;22.00;99.90;;;;;;5044394;28;20044;-73
2023/07/01 12:44:06;;;;;;;0.08;0.08;;;21.90;99.90;;;;;;5043881;28;20048;-73
2023/07/01 12:46:32;;;;;;;0.73;0.55;;;21.90;99.90;;;;;;5044036;28;20047;-73
2023/07/01 12:49:00;;;;;;;0.05;0.05;;;22.10;99.90;;;;;;5044278;28;20068;-73
2023/07/01 12:51:26;;;;;;;0.65;0.60;;;22.10;62.60;;;;;;5044164;28;20155;-73